sensor_id;sensor_type;location;lat;lon;timestamp;P1;durP1;ratioP1;P2;durP2;ratioP2
42518;SDS011;28147;47.520;18.920;2023-05-10T00:00:39;3.42;;;1.80;;
42518;SDS011;28147;47.520;18.920;2023-05-10T00:03:05;4.30;;;2.13;;
42518;SDS011;28147;47.520;18.920;2023-05-10T00:05:31;3.92;;;2.17;;
42518;SDS011;28147;47.520;18.920;2023-05-10T00:07:56;3.10;;;2.13;;
42518;SDS011;28147;47.520;18.920;2023-05-10T00:10:22;3.35;;;1.77;;
42518;SDS011;28147;47.520;18.920;2023-05-10T00:12:47;5.07;;;2.72;;
42518;SDS011;28147;47.520;18.920;2023-05-10T00:15:13;4.30;;;2.30;;
42518;SDS011;28147;47.520;18.920;2023-05-10T00:17:38;6.72;;;2.75;;
42518;SDS011;28147;47.520;18.920;2023-05-10T00:20:04;3.47;;;1.77;;
42518;SDS011;28147;47.520;18.920;2023-05-10T00:22:30;3.40;;;1.92;;
42518;SDS011;28147;47.520;18.920;2023-05-10T00:24:56;6.68;;;2.53;;
42518;SDS011;28147;47.520;18.920;2023-05-10T00:27:22;4.20;;;2.20;;
42518;SDS011;28147;47.520;18.920;2023-05-10T00:29:47;3.13;;;1.90;;
42518;SDS011;28147;47.520;18.920;2023-05-10T00:32:14;4.70;;;2.47;;
42518;SDS011;28147;47.520;18.920;2023-05-10T00:34:39;5.55;;;2.20;;
42518;SDS011;28147;47.520;18.920;2023-05-10T00:37:04;3.65;;;2.10;;
42518;SDS011;28147;47.520;18.920;2023-05-10T00:39:30;3.67;;;1.92;;
42518;SDS011;28147;47.520;18.920;2023-05-10T00:41:56;3.17;;;1.45;;
42518;SDS011;28147;47.520;18.920;2023-05-10T00:44:21;4.15;;;1.70;;
42518;SDS011;28147;47.520;18.920;2023-05-10T00:46:47;3.65;;;1.70;;
42518;SDS011;28147;47.520;18.920;2023-05-10T00:49:13;3.20;;;1.90;;
42518;SDS011;28147;47.520;18.920;2023-05-10T00:51:38;5.72;;;2.20;;
42518;SDS011;28147;47.520;18.920;2023-05-10T00:54:04;3.00;;;1.75;;
42518;SDS011;28147;47.520;18.920;2023-05-10T00:56:30;3.80;;;2.05;;
42518;SDS011;28147;47.520;18.920;2023-05-10T00:58:56;5.53;;;2.03;;
42518;SDS011;28147;47.520;18.920;2023-05-10T01:01:22;3.53;;;2.05;;
42518;SDS011;28147;47.520;18.920;2023-05-10T01:03:48;3.97;;;1.98;;
42518;SDS011;28147;47.520;18.920;2023-05-10T01:06:13;3.08;;;1.75;;
42518;SDS011;28147;47.520;18.920;2023-05-10T01:08:39;5.53;;;2.20;;
42518;SDS011;28147;47.520;18.920;2023-05-10T01:11:05;6.30;;;2.47;;
42518;SDS011;28147;47.520;18.920;2023-05-10T01:13:34;4.13;;;2.08;;
42518;SDS011;28147;47.520;18.920;2023-05-10T01:16:02;4.38;;;2.03;;
42518;SDS011;28147;47.520;18.920;2023-05-10T01:18:29;3.45;;;2.03;;
42518;SDS011;28147;47.520;18.920;2023-05-10T01:35:05;4.25;;;1.90;;
42518;SDS011;28147;47.520;18.920;2023-05-10T01:40:08;4.00;;;2.15;;
42518;SDS011;28147;47.520;18.920;2023-05-10T01:42:54;5.47;;;1.95;;
42518;SDS011;28147;47.520;18.920;2023-05-10T01:45:41;6.13;;;2.28;;
42518;SDS011;28147;47.520;18.920;2023-05-10T01:48:11;6.40;;;2.15;;
42518;SDS011;28147;47.520;18.920;2023-05-10T01:50:42;4.32;;;2.30;;
42518;SDS011;28147;47.520;18.920;2023-05-10T01:53:10;3.92;;;2.25;;
42518;SDS011;28147;47.520;18.920;2023-05-10T01:55:43;4.57;;;2.70;;
42518;SDS011;28147;47.520;18.920;2023-05-10T01:58:17;3.85;;;2.13;;
42518;SDS011;28147;47.520;18.920;2023-05-10T02:00:46;4.13;;;2.03;;
42518;SDS011;28147;47.520;18.920;2023-05-10T02:03:14;3.72;;;2.35;;
42518;SDS011;28147;47.520;18.920;2023-05-10T02:05:41;4.78;;;2.30;;
42518;SDS011;28147;47.520;18.920;2023-05-10T02:08:10;4.32;;;2.20;;
42518;SDS011;28147;47.520;18.920;2023-05-10T02:10:37;4.72;;;2.17;;
42518;SDS011;28147;47.520;18.920;2023-05-10T02:13:05;3.65;;;2.10;;
42518;SDS011;28147;47.520;18.920;2023-05-10T02:15:32;4.20;;;2.10;;
42518;SDS011;28147;47.520;18.920;2023-05-10T02:17:59;3.97;;;2.25;;
42518;SDS011;28147;47.520;18.920;2023-05-10T02:20:27;7.22;;;2.20;;
42518;SDS011;28147;47.520;18.920;2023-05-10T02:22:54;3.33;;;2.08;;
42518;SDS011;28147;47.520;18.920;2023-05-10T02:25:23;4.03;;;2.40;;
42518;SDS011;28147;47.520;18.920;2023-05-10T02:27:50;4.28;;;2.35;;
42518;SDS011;28147;47.520;18.920;2023-05-10T02:30:19;4.13;;;2.15;;
42518;SDS011;28147;47.520;18.920;2023-05-10T02:32:45;3.45;;;2.10;;
42518;SDS011;28147;47.520;18.920;2023-05-10T02:35:12;3.78;;;2.03;;
42518;SDS011;28147;47.520;18.920;2023-05-10T02:37:38;3.00;;;1.90;;
42518;SDS011;28147;47.520;18.920;2023-05-10T02:40:05;4.03;;;2.53;;
42518;SDS011;28147;47.520;18.920;2023-05-10T02:42:32;4.03;;;1.98;;
42518;SDS011;28147;47.520;18.920;2023-05-10T02:45:02;3.67;;;2.17;;
42518;SDS011;28147;47.520;18.920;2023-05-10T02:47:33;3.67;;;2.00;;
42518;SDS011;28147;47.520;18.920;2023-05-10T02:49:59;3.95;;;2.10;;
42518;SDS011;28147;47.520;18.920;2023-05-10T02:52:29;3.00;;;1.92;;
42518;SDS011;28147;47.520;18.920;2023-05-10T02:55:00;3.95;;;2.63;;
42518;SDS011;28147;47.520;18.920;2023-05-10T02:57:32;4.38;;;2.00;;
42518;SDS011;28147;47.520;18.920;2023-05-10T02:59:59;3.10;;;2.03;;
42518;SDS011;28147;47.520;18.920;2023-05-10T03:02:25;3.30;;;2.08;;
42518;SDS011;28147;47.520;18.920;2023-05-10T03:04:51;7.43;;;2.35;;
42518;SDS011;28147;47.520;18.920;2023-05-10T03:07:17;3.72;;;1.98;;
42518;SDS011;28147;47.520;18.920;2023-05-10T03:09:46;4.80;;;2.35;;
42518;SDS011;28147;47.520;18.920;2023-05-10T03:12:18;4.75;;;2.40;;
42518;SDS011;28147;47.520;18.920;2023-05-10T03:20:12;4.95;;;2.05;;
42518;SDS011;28147;47.520;18.920;2023-05-10T03:23:04;3.97;;;1.95;;
42518;SDS011;28147;47.520;18.920;2023-05-10T03:25:36;3.70;;;2.20;;
42518;SDS011;28147;47.520;18.920;2023-05-10T03:28:02;3.17;;;1.90;;
42518;SDS011;28147;47.520;18.920;2023-05-10T03:30:29;2.95;;;1.75;;
42518;SDS011;28147;47.520;18.920;2023-05-10T03:32:56;4.38;;;2.08;;
42518;SDS011;28147;47.520;18.920;2023-05-10T03:35:22;3.50;;;2.10;;
42518;SDS011;28147;47.520;18.920;2023-05-10T03:37:48;6.05;;;2.35;;
42518;SDS011;28147;47.520;18.920;2023-05-10T03:40:14;5.07;;;2.03;;
42518;SDS011;28147;47.520;18.920;2023-05-10T03:42:40;3.70;;;2.30;;
42518;SDS011;28147;47.520;18.920;2023-05-10T03:45:06;3.95;;;2.22;;
42518;SDS011;28147;47.520;18.920;2023-05-10T03:47:32;3.20;;;2.25;;
42518;SDS011;28147;47.520;18.920;2023-05-10T03:49:57;3.83;;;2.10;;
42518;SDS011;28147;47.520;18.920;2023-05-10T03:52:22;7.40;;;2.38;;
42518;SDS011;28147;47.520;18.920;2023-05-10T03:54:48;4.65;;;2.28;;
42518;SDS011;28147;47.520;18.920;2023-05-10T03:57:13;3.30;;;2.08;;
42518;SDS011;28147;47.520;18.920;2023-05-10T03:59:39;4.00;;;2.38;;
42518;SDS011;28147;47.520;18.920;2023-05-10T04:02:04;3.95;;;1.85;;
42518;SDS011;28147;47.520;18.920;2023-05-10T04:04:30;4.38;;;2.63;;
42518;SDS011;28147;47.520;18.920;2023-05-10T04:06:55;4.25;;;2.35;;
42518;SDS011;28147;47.520;18.920;2023-05-10T04:09:20;3.72;;;2.20;;
42518;SDS011;28147;47.520;18.920;2023-05-10T04:11:46;4.05;;;2.40;;
42518;SDS011;28147;47.520;18.920;2023-05-10T04:14:11;4.25;;;2.30;;
42518;SDS011;28147;47.520;18.920;2023-05-10T04:16:36;4.05;;;2.50;;
42518;SDS011;28147;47.520;18.920;2023-05-10T04:19:02;4.00;;;1.95;;
42518;SDS011;28147;47.520;18.920;2023-05-10T04:21:27;3.33;;;2.10;;
42518;SDS011;28147;47.520;18.920;2023-05-10T04:23:53;6.35;;;2.63;;
42518;SDS011;28147;47.520;18.920;2023-05-10T04:26:18;4.95;;;2.40;;
42518;SDS011;28147;47.520;18.920;2023-05-10T04:28:44;4.00;;;2.13;;
42518;SDS011;28147;47.520;18.920;2023-05-10T04:31:10;6.45;;;2.60;;
42518;SDS011;28147;47.520;18.920;2023-05-10T04:33:35;4.28;;;2.58;;
42518;SDS011;28147;47.520;18.920;2023-05-10T04:36:01;3.70;;;2.30;;
42518;SDS011;28147;47.520;18.920;2023-05-10T04:38:28;4.40;;;2.47;;
42518;SDS011;28147;47.520;18.920;2023-05-10T04:40:54;4.28;;;2.70;;
42518;SDS011;28147;47.520;18.920;2023-05-10T04:43:19;7.00;;;3.00;;
42518;SDS011;28147;47.520;18.920;2023-05-10T04:45:45;4.38;;;2.60;;
42518;SDS011;28147;47.520;18.920;2023-05-10T04:48:11;5.57;;;2.70;;
42518;SDS011;28147;47.520;18.920;2023-05-10T04:50:37;6.07;;;2.85;;
42518;SDS011;28147;47.520;18.920;2023-05-10T04:53:02;3.00;;;2.13;;
42518;SDS011;28147;47.520;18.920;2023-05-10T04:55:28;4.15;;;2.38;;
42518;SDS011;28147;47.520;18.920;2023-05-10T04:57:53;4.82;;;2.80;;
42518;SDS011;28147;47.520;18.920;2023-05-10T05:00:21;3.50;;;2.33;;
42518;SDS011;28147;47.520;18.920;2023-05-10T05:02:47;4.30;;;2.50;;
42518;SDS011;28147;47.520;18.920;2023-05-10T05:05:12;5.10;;;2.70;;
42518;SDS011;28147;47.520;18.920;2023-05-10T05:07:38;5.90;;;2.70;;
42518;SDS011;28147;47.520;18.920;2023-05-10T05:10:06;6.32;;;3.03;;
42518;SDS011;28147;47.520;18.920;2023-05-10T05:12:33;4.15;;;2.58;;
42518;SDS011;28147;47.520;18.920;2023-05-10T05:14:58;4.95;;;2.53;;
42518;SDS011;28147;47.520;18.920;2023-05-10T05:17:23;6.38;;;2.60;;
42518;SDS011;28147;47.520;18.920;2023-05-10T05:19:49;7.55;;;2.60;;
42518;SDS011;28147;47.520;18.920;2023-05-10T05:22:14;4.47;;;2.50;;
42518;SDS011;28147;47.520;18.920;2023-05-10T05:24:39;3.70;;;2.33;;
42518;SDS011;28147;47.520;18.920;2023-05-10T05:27:05;6.45;;;2.65;;
42518;SDS011;28147;47.520;18.920;2023-05-10T05:29:31;4.63;;;2.58;;
42518;SDS011;28147;47.520;18.920;2023-05-10T05:31:58;7.50;;;2.83;;
42518;SDS011;28147;47.520;18.920;2023-05-10T05:34:23;5.18;;;2.72;;
42518;SDS011;28147;47.520;18.920;2023-05-10T05:36:49;7.03;;;3.10;;
42518;SDS011;28147;47.520;18.920;2023-05-10T05:39:15;7.03;;;2.78;;
42518;SDS011;28147;47.520;18.920;2023-05-10T05:41:40;7.03;;;3.15;;
42518;SDS011;28147;47.520;18.920;2023-05-10T05:44:06;4.65;;;2.50;;
42518;SDS011;28147;47.520;18.920;2023-05-10T05:46:31;6.18;;;2.80;;
42518;SDS011;28147;47.520;18.920;2023-05-10T05:48:57;4.25;;;2.70;;
42518;SDS011;28147;47.520;18.920;2023-05-10T05:51:22;5.40;;;3.20;;
42518;SDS011;28147;47.520;18.920;2023-05-10T05:53:47;6.13;;;2.80;;
42518;SDS011;28147;47.520;18.920;2023-05-10T05:56:13;3.80;;;2.50;;
42518;SDS011;28147;47.520;18.920;2023-05-10T05:58:38;4.90;;;2.53;;
42518;SDS011;28147;47.520;18.920;2023-05-10T06:01:04;6.00;;;2.78;;
42518;SDS011;28147;47.520;18.920;2023-05-10T06:03:29;4.82;;;2.45;;
42518;SDS011;28147;47.520;18.920;2023-05-10T06:05:55;4.35;;;2.63;;
42518;SDS011;28147;47.520;18.920;2023-05-10T06:08:20;4.70;;;2.70;;
42518;SDS011;28147;47.520;18.920;2023-05-10T06:10:46;4.93;;;2.65;;
42518;SDS011;28147;47.520;18.920;2023-05-10T06:13:11;6.75;;;2.70;;
42518;SDS011;28147;47.520;18.920;2023-05-10T06:15:37;6.40;;;2.78;;
42518;SDS011;28147;47.520;18.920;2023-05-10T06:18:03;5.40;;;2.67;;
42518;SDS011;28147;47.520;18.920;2023-05-10T06:20:29;3.95;;;2.40;;
42518;SDS011;28147;47.520;18.920;2023-05-10T06:22:56;4.60;;;2.83;;
42518;SDS011;28147;47.520;18.920;2023-05-10T06:25:22;5.43;;;2.38;;
42518;SDS011;28147;47.520;18.920;2023-05-10T06:27:47;4.50;;;2.63;;
42518;SDS011;28147;47.520;18.920;2023-05-10T06:30:13;5.20;;;2.42;;
42518;SDS011;28147;47.520;18.920;2023-05-10T06:32:40;3.47;;;2.17;;
42518;SDS011;28147;47.520;18.920;2023-05-10T06:35:06;4.63;;;2.78;;
42518;SDS011;28147;47.520;18.920;2023-05-10T06:37:32;4.00;;;2.38;;
42518;SDS011;28147;47.520;18.920;2023-05-10T06:39:58;4.18;;;2.60;;
42518;SDS011;28147;47.520;18.920;2023-05-10T06:42:23;4.10;;;2.70;;
42518;SDS011;28147;47.520;18.920;2023-05-10T06:44:50;5.78;;;2.35;;
42518;SDS011;28147;47.520;18.920;2023-05-10T06:47:16;4.97;;;3.03;;
42518;SDS011;28147;47.520;18.920;2023-05-10T06:49:41;6.03;;;3.05;;
42518;SDS011;28147;47.520;18.920;2023-05-10T06:52:06;3.53;;;2.30;;
42518;SDS011;28147;47.520;18.920;2023-05-10T06:54:32;3.28;;;2.40;;
42518;SDS011;28147;47.520;18.920;2023-05-10T06:56:58;4.88;;;2.83;;
42518;SDS011;28147;47.520;18.920;2023-05-10T06:59:23;4.32;;;2.55;;
42518;SDS011;28147;47.520;18.920;2023-05-10T07:01:49;4.43;;;2.90;;
42518;SDS011;28147;47.520;18.920;2023-05-10T07:04:14;4.90;;;2.65;;
42518;SDS011;28147;47.520;18.920;2023-05-10T07:06:39;3.75;;;2.35;;
42518;SDS011;28147;47.520;18.920;2023-05-10T07:09:05;3.47;;;2.28;;
42518;SDS011;28147;47.520;18.920;2023-05-10T07:11:30;6.40;;;2.63;;
42518;SDS011;28147;47.520;18.920;2023-05-10T07:13:56;5.45;;;2.92;;
42518;SDS011;28147;47.520;18.920;2023-05-10T07:16:21;5.18;;;2.10;;
42518;SDS011;28147;47.520;18.920;2023-05-10T07:18:47;2.67;;;2.15;;
42518;SDS011;28147;47.520;18.920;2023-05-10T07:21:12;5.40;;;2.50;;
42518;SDS011;28147;47.520;18.920;2023-05-10T07:23:37;4.53;;;2.83;;
42518;SDS011;28147;47.520;18.920;2023-05-10T07:26:03;3.70;;;2.47;;
42518;SDS011;28147;47.520;18.920;2023-05-10T07:28:28;6.63;;;2.58;;
42518;SDS011;28147;47.520;18.920;2023-05-10T07:30:54;2.88;;;1.98;;
42518;SDS011;28147;47.520;18.920;2023-05-10T07:33:19;3.92;;;2.28;;
42518;SDS011;28147;47.520;18.920;2023-05-10T07:35:45;4.50;;;2.60;;
42518;SDS011;28147;47.520;18.920;2023-05-10T07:38:10;4.75;;;2.63;;
42518;SDS011;28147;47.520;18.920;2023-05-10T07:40:36;6.68;;;2.95;;
42518;SDS011;28147;47.520;18.920;2023-05-10T07:43:01;6.30;;;2.60;;
42518;SDS011;28147;47.520;18.920;2023-05-10T07:45:27;5.68;;;2.70;;
42518;SDS011;28147;47.520;18.920;2023-05-10T07:47:53;6.43;;;2.22;;
42518;SDS011;28147;47.520;18.920;2023-05-10T07:50:18;4.45;;;2.25;;
42518;SDS011;28147;47.520;18.920;2023-05-10T07:52:44;4.97;;;2.70;;
42518;SDS011;28147;47.520;18.920;2023-05-10T07:55:09;4.20;;;2.90;;
42518;SDS011;28147;47.520;18.920;2023-05-10T07:57:35;5.60;;;2.60;;
42518;SDS011;28147;47.520;18.920;2023-05-10T08:00:01;4.88;;;3.30;;
42518;SDS011;28147;47.520;18.920;2023-05-10T08:02:28;4.38;;;2.60;;
42518;SDS011;28147;47.520;18.920;2023-05-10T08:04:54;5.85;;;2.38;;
42518;SDS011;28147;47.520;18.920;2023-05-10T08:07:20;3.20;;;1.73;;
42518;SDS011;28147;47.520;18.920;2023-05-10T08:09:46;3.35;;;2.03;;
42518;SDS011;28147;47.520;18.920;2023-05-10T08:12:11;6.28;;;2.22;;
42518;SDS011;28147;47.520;18.920;2023-05-10T08:14:37;3.58;;;2.03;;
42518;SDS011;28147;47.520;18.920;2023-05-10T08:17:02;10.40;;;2.33;;
42518;SDS011;28147;47.520;18.920;2023-05-10T08:19:29;5.80;;;2.30;;
42518;SDS011;28147;47.520;18.920;2023-05-10T08:21:54;4.40;;;2.20;;
42518;SDS011;28147;47.520;18.920;2023-05-10T08:24:20;4.30;;;2.45;;
42518;SDS011;28147;47.520;18.920;2023-05-10T08:26:46;4.22;;;2.05;;
42518;SDS011;28147;47.520;18.920;2023-05-10T08:29:12;3.42;;;2.10;;
42518;SDS011;28147;47.520;18.920;2023-05-10T08:31:38;3.72;;;2.40;;
42518;SDS011;28147;47.520;18.920;2023-05-10T08:34:03;5.20;;;2.58;;
42518;SDS011;28147;47.520;18.920;2023-05-10T08:36:29;3.17;;;1.98;;
42518;SDS011;28147;47.520;18.920;2023-05-10T08:38:54;4.10;;;2.30;;
42518;SDS011;28147;47.520;18.920;2023-05-10T08:41:20;4.00;;;2.00;;
42518;SDS011;28147;47.520;18.920;2023-05-10T08:43:49;4.35;;;2.30;;
42518;SDS011;28147;47.520;18.920;2023-05-10T08:46:16;4.13;;;2.42;;
42518;SDS011;28147;47.520;18.920;2023-05-10T08:48:46;5.60;;;2.58;;
42518;SDS011;28147;47.520;18.920;2023-05-10T08:51:13;3.97;;;2.42;;
42518;SDS011;28147;47.520;18.920;2023-05-10T08:53:42;3.47;;;1.90;;
42518;SDS011;28147;47.520;18.920;2023-05-10T08:56:09;3.78;;;1.80;;
42518;SDS011;28147;47.520;18.920;2023-05-10T08:58:34;3.30;;;1.98;;
42518;SDS011;28147;47.520;18.920;2023-05-10T09:01:01;3.25;;;2.05;;
42518;SDS011;28147;47.520;18.920;2023-05-10T09:03:28;4.07;;;2.40;;
42518;SDS011;28147;47.520;18.920;2023-05-10T09:05:54;3.70;;;2.15;;
42518;SDS011;28147;47.520;18.920;2023-05-10T09:08:21;4.40;;;1.77;;
42518;SDS011;28147;47.520;18.920;2023-05-10T09:10:50;3.50;;;1.90;;
42518;SDS011;28147;47.520;18.920;2023-05-10T09:13:16;3.00;;;1.88;;
42518;SDS011;28147;47.520;18.920;2023-05-10T09:15:43;3.13;;;2.25;;
42518;SDS011;28147;47.520;18.920;2023-05-10T09:18:09;4.93;;;2.08;;
42518;SDS011;28147;47.520;18.920;2023-05-10T09:20:35;2.85;;;1.90;;
42518;SDS011;28147;47.520;18.920;2023-05-10T09:23:00;4.22;;;1.98;;
42518;SDS011;28147;47.520;18.920;2023-05-10T09:25:25;2.75;;;1.90;;
42518;SDS011;28147;47.520;18.920;2023-05-10T09:27:51;3.25;;;2.13;;
42518;SDS011;28147;47.520;18.920;2023-05-10T09:30:27;3.83;;;2.65;;
42518;SDS011;28147;47.520;18.920;2023-05-10T09:32:57;4.22;;;2.10;;
42518;SDS011;28147;47.520;18.920;2023-05-10T09:35:24;3.40;;;2.15;;
42518;SDS011;28147;47.520;18.920;2023-05-10T09:37:52;5.97;;;1.73;;
42518;SDS011;28147;47.520;18.920;2023-05-10T09:40:20;2.33;;;1.50;;
42518;SDS011;28147;47.520;18.920;2023-05-10T09:42:56;2.83;;;1.67;;
42518;SDS011;28147;47.520;18.920;2023-05-10T09:45:24;2.78;;;1.80;;
42518;SDS011;28147;47.520;18.920;2023-05-10T09:47:53;2.90;;;2.10;;
42518;SDS011;28147;47.520;18.920;2023-05-10T09:50:19;4.05;;;2.28;;
42518;SDS011;28147;47.520;18.920;2023-05-10T09:52:50;3.15;;;2.15;;
42518;SDS011;28147;47.520;18.920;2023-05-10T09:55:19;5.00;;;2.00;;
42518;SDS011;28147;47.520;18.920;2023-05-10T09:57:45;3.63;;;2.08;;
42518;SDS011;28147;47.520;18.920;2023-05-10T10:00:16;3.03;;;1.67;;
42518;SDS011;28147;47.520;18.920;2023-05-10T10:02:54;5.28;;;2.03;;
42518;SDS011;28147;47.520;18.920;2023-05-10T10:05:21;3.60;;;2.05;;
42518;SDS011;28147;47.520;18.920;2023-05-10T10:07:53;3.10;;;1.92;;
42518;SDS011;28147;47.520;18.920;2023-05-10T10:10:19;4.80;;;2.10;;
42518;SDS011;28147;47.520;18.920;2023-05-10T10:12:44;3.30;;;2.20;;
42518;SDS011;28147;47.520;18.920;2023-05-10T10:15:10;4.13;;;2.10;;
42518;SDS011;28147;47.520;18.920;2023-05-10T10:17:36;3.90;;;2.22;;
42518;SDS011;28147;47.520;18.920;2023-05-10T10:20:05;3.00;;;1.85;;
42518;SDS011;28147;47.520;18.920;2023-05-10T10:22:31;4.80;;;1.80;;
42518;SDS011;28147;47.520;18.920;2023-05-10T10:24:57;3.80;;;1.88;;
42518;SDS011;28147;47.520;18.920;2023-05-10T10:30:24;3.88;;;2.33;;
42518;SDS011;28147;47.520;18.920;2023-05-10T10:35:49;3.38;;;1.98;;
42518;SDS011;28147;47.520;18.920;2023-05-10T10:38:17;4.18;;;2.58;;
42518;SDS011;28147;47.520;18.920;2023-05-10T10:40:42;3.65;;;2.10;;
42518;SDS011;28147;47.520;18.920;2023-05-10T10:43:27;3.33;;;1.80;;
42518;SDS011;28147;47.520;18.920;2023-05-10T10:46:13;3.03;;;2.00;;
42518;SDS011;28147;47.520;18.920;2023-05-10T10:48:41;3.30;;;1.73;;
42518;SDS011;28147;47.520;18.920;2023-05-10T10:51:12;3.60;;;2.15;;
42518;SDS011;28147;47.520;18.920;2023-05-10T10:53:39;2.72;;;1.50;;
42518;SDS011;28147;47.520;18.920;2023-05-10T10:56:09;6.75;;;2.20;;
42518;SDS011;28147;47.520;18.920;2023-05-10T10:58:38;2.60;;;1.48;;
42518;SDS011;28147;47.520;18.920;2023-05-10T11:01:17;2.83;;;2.08;;
42518;SDS011;28147;47.520;18.920;2023-05-10T11:08:59;4.32;;;1.50;;
42518;SDS011;28147;47.520;18.920;2023-05-10T11:11:31;3.65;;;1.77;;
42518;SDS011;28147;47.520;18.920;2023-05-10T11:13:56;3.00;;;1.75;;
42518;SDS011;28147;47.520;18.920;2023-05-10T11:16:28;2.53;;;1.40;;
42518;SDS011;28147;47.520;18.920;2023-05-10T11:19:13;2.72;;;1.52;;
42518;SDS011;28147;47.520;18.920;2023-05-10T11:21:52;1.92;;;1.30;;
42518;SDS011;28147;47.520;18.920;2023-05-10T11:24:38;3.28;;;1.75;;
42518;SDS011;28147;47.520;18.920;2023-05-10T11:27:03;2.38;;;1.27;;
42518;SDS011;28147;47.520;18.920;2023-05-10T11:29:30;2.55;;;1.30;;
42518;SDS011;28147;47.520;18.920;2023-05-10T11:31:58;1.95;;;1.30;;
42518;SDS011;28147;47.520;18.920;2023-05-10T11:34:28;1.50;;;1.23;;
42518;SDS011;28147;47.520;18.920;2023-05-10T11:36:56;3.63;;;1.50;;
42518;SDS011;28147;47.520;18.920;2023-05-10T11:39:29;1.83;;;1.27;;
42518;SDS011;28147;47.520;18.920;2023-05-10T11:41:55;1.48;;;1.10;;
42518;SDS011;28147;47.520;18.920;2023-05-10T11:44:22;2.67;;;1.00;;
42518;SDS011;28147;47.520;18.920;2023-05-10T11:46:48;2.42;;;1.50;;
42518;SDS011;28147;47.520;18.920;2023-05-10T11:49:14;4.10;;;1.50;;
42518;SDS011;28147;47.520;18.920;2023-05-10T11:51:39;1.65;;;1.13;;
42518;SDS011;28147;47.520;18.920;2023-05-10T11:54:08;1.85;;;1.20;;
42518;SDS011;28147;47.520;18.920;2023-05-10T11:56:39;5.97;;;1.65;;
42518;SDS011;28147;47.520;18.920;2023-05-10T11:59:05;2.72;;;1.25;;
42518;SDS011;28147;47.520;18.920;2023-05-10T12:01:31;1.60;;;1.15;;
42518;SDS011;28147;47.520;18.920;2023-05-10T12:03:57;3.50;;;1.23;;
42518;SDS011;28147;47.520;18.920;2023-05-10T12:06:26;3.67;;;1.17;;
42518;SDS011;28147;47.520;18.920;2023-05-10T12:08:53;1.73;;;1.10;;
42518;SDS011;28147;47.520;18.920;2023-05-10T12:11:19;2.08;;;1.10;;
42518;SDS011;28147;47.520;18.920;2023-05-10T12:13:46;2.70;;;1.13;;
42518;SDS011;28147;47.520;18.920;2023-05-10T12:16:12;1.90;;;1.20;;
42518;SDS011;28147;47.520;18.920;2023-05-10T12:18:39;2.65;;;1.38;;
42518;SDS011;28147;47.520;18.920;2023-05-10T12:21:06;1.80;;;1.10;;
42518;SDS011;28147;47.520;18.920;2023-05-10T12:23:31;2.13;;;1.10;;
42518;SDS011;28147;47.520;18.920;2023-05-10T12:26:01;2.50;;;1.40;;
42518;SDS011;28147;47.520;18.920;2023-05-10T12:28:29;2.75;;;1.50;;
42518;SDS011;28147;47.520;18.920;2023-05-10T12:30:57;2.25;;;1.17;;
42518;SDS011;28147;47.520;18.920;2023-05-10T12:33:23;3.22;;;1.48;;
42518;SDS011;28147;47.520;18.920;2023-05-10T12:35:49;2.17;;;1.17;;
42518;SDS011;28147;47.520;18.920;2023-05-10T12:38:24;1.45;;;0.95;;
42518;SDS011;28147;47.520;18.920;2023-05-10T12:40:54;2.95;;;1.52;;
42518;SDS011;28147;47.520;18.920;2023-05-10T12:43:20;2.08;;;1.23;;
42518;SDS011;28147;47.520;18.920;2023-05-10T12:45:45;4.78;;;0.93;;
42518;SDS011;28147;47.520;18.920;2023-05-10T12:48:13;3.35;;;1.33;;
42518;SDS011;28147;47.520;18.920;2023-05-10T12:50:38;5.20;;;1.23;;
42518;SDS011;28147;47.520;18.920;2023-05-10T12:53:03;1.42;;;1.10;;
42518;SDS011;28147;47.520;18.920;2023-05-10T12:55:29;2.22;;;1.10;;
42518;SDS011;28147;47.520;18.920;2023-05-10T12:57:54;1.70;;;1.20;;
42518;SDS011;28147;47.520;18.920;2023-05-10T13:00:20;2.97;;;1.30;;
42518;SDS011;28147;47.520;18.920;2023-05-10T13:02:45;2.30;;;1.25;;
42518;SDS011;28147;47.520;18.920;2023-05-10T13:05:11;2.00;;;1.00;;
42518;SDS011;28147;47.520;18.920;2023-05-10T13:07:38;1.65;;;1.10;;
42518;SDS011;28147;47.520;18.920;2023-05-10T13:10:04;2.42;;;1.05;;
42518;SDS011;28147;47.520;18.920;2023-05-10T13:12:35;2.22;;;1.17;;
42518;SDS011;28147;47.520;18.920;2023-05-10T13:15:01;3.85;;;1.33;;
42518;SDS011;28147;47.520;18.920;2023-05-10T13:17:28;2.95;;;1.35;;
42518;SDS011;28147;47.520;18.920;2023-05-10T13:19:53;1.58;;;0.90;;
42518;SDS011;28147;47.520;18.920;2023-05-10T13:22:19;1.20;;;1.00;;
42518;SDS011;28147;47.520;18.920;2023-05-10T13:24:44;2.47;;;1.27;;
42518;SDS011;28147;47.520;18.920;2023-05-10T13:27:10;0.93;;;0.77;;
42518;SDS011;28147;47.520;18.920;2023-05-10T13:29:35;2.10;;;0.93;;
42518;SDS011;28147;47.520;18.920;2023-05-10T13:32:01;2.03;;;0.80;;
42518;SDS011;28147;47.520;18.920;2023-05-10T13:34:26;2.13;;;1.13;;
42518;SDS011;28147;47.520;18.920;2023-05-10T13:36:52;1.38;;;0.90;;
42518;SDS011;28147;47.520;18.920;2023-05-10T13:39:18;1.38;;;0.85;;
42518;SDS011;28147;47.520;18.920;2023-05-10T13:41:45;4.68;;;1.25;;
42518;SDS011;28147;47.520;18.920;2023-05-10T13:44:11;4.32;;;1.27;;
42518;SDS011;28147;47.520;18.920;2023-05-10T13:46:38;1.67;;;0.80;;
42518;SDS011;28147;47.520;18.920;2023-05-10T13:49:04;1.80;;;1.30;;
42518;SDS011;28147;47.520;18.920;2023-05-10T13:51:29;2.92;;;1.10;;
42518;SDS011;28147;47.520;18.920;2023-05-10T13:53:56;2.05;;;1.20;;
42518;SDS011;28147;47.520;18.920;2023-05-10T13:56:22;3.95;;;1.45;;
42518;SDS011;28147;47.520;18.920;2023-05-10T13:58:48;0.88;;;0.73;;
42518;SDS011;28147;47.520;18.920;2023-05-10T14:01:13;2.08;;;0.93;;
42518;SDS011;28147;47.520;18.920;2023-05-10T14:03:39;2.13;;;0.90;;
42518;SDS011;28147;47.520;18.920;2023-05-10T14:06:04;3.22;;;0.98;;
42518;SDS011;28147;47.520;18.920;2023-05-10T14:08:29;4.10;;;0.95;;
42518;SDS011;28147;47.520;18.920;2023-05-10T14:10:55;2.45;;;0.90;;
42518;SDS011;28147;47.520;18.920;2023-05-10T14:13:21;2.50;;;1.00;;
42518;SDS011;28147;47.520;18.920;2023-05-10T14:15:47;2.63;;;1.02;;
42518;SDS011;28147;47.520;18.920;2023-05-10T14:18:12;2.60;;;0.88;;
42518;SDS011;28147;47.520;18.920;2023-05-10T14:20:38;2.35;;;1.00;;
42518;SDS011;28147;47.520;18.920;2023-05-10T14:23:03;1.40;;;0.90;;
42518;SDS011;28147;47.520;18.920;2023-05-10T14:25:28;1.48;;;0.98;;
42518;SDS011;28147;47.520;18.920;2023-05-10T14:27:54;1.52;;;0.75;;
42518;SDS011;28147;47.520;18.920;2023-05-10T14:30:19;2.08;;;0.95;;
42518;SDS011;28147;47.520;18.920;2023-05-10T14:32:45;1.88;;;0.90;;
42518;SDS011;28147;47.520;18.920;2023-05-10T14:35:11;2.25;;;1.05;;
42518;SDS011;28147;47.520;18.920;2023-05-10T14:37:37;1.85;;;1.00;;
42518;SDS011;28147;47.520;18.920;2023-05-10T14:40:03;1.33;;;0.80;;
42518;SDS011;28147;47.520;18.920;2023-05-10T14:42:29;1.25;;;0.75;;
42518;SDS011;28147;47.520;18.920;2023-05-10T14:44:54;1.58;;;0.85;;
42518;SDS011;28147;47.520;18.920;2023-05-10T14:47:20;1.92;;;0.82;;
42518;SDS011;28147;47.520;18.920;2023-05-10T14:49:45;1.23;;;0.80;;
42518;SDS011;28147;47.520;18.920;2023-05-10T14:52:11;1.20;;;0.70;;
42518;SDS011;28147;47.520;18.920;2023-05-10T14:54:37;0.93;;;0.65;;
42518;SDS011;28147;47.520;18.920;2023-05-10T14:57:02;3.20;;;1.05;;
42518;SDS011;28147;47.520;18.920;2023-05-10T14:59:28;2.05;;;0.80;;
42518;SDS011;28147;47.520;18.920;2023-05-10T15:01:53;2.15;;;1.00;;
42518;SDS011;28147;47.520;18.920;2023-05-10T15:04:18;1.30;;;0.82;;